createdAt,value
2023-05-24T00:00:19.123Z,7.74
2023-05-24T00:02:46.232Z,7.15
2023-05-24T00:05:14.778Z,7.48
2023-05-24T00:07:41.986Z,7.65
2023-05-24T00:10:10.069Z,7.52
2023-05-24T00:12:37.164Z,7.70
2023-05-24T00:15:04.701Z,7.65
2023-05-24T00:17:32.148Z,7.57
2023-05-24T00:19:59.700Z,7.55
2023-05-24T00:22:26.812Z,7.74
2023-05-24T00:24:53.893Z,7.48
2023-05-24T00:27:20.933Z,7.32
2023-05-24T00:29:48.010Z,7.50
2023-05-24T00:32:15.191Z,7.38
2023-05-24T00:34:42.284Z,7.41
2023-05-24T00:37:12.900Z,7.30
2023-05-24T00:39:40.012Z,7.25
2023-05-24T00:42:07.490Z,6.88
2023-05-24T00:44:34.607Z,7.13
2023-05-24T00:47:01.720Z,7.08
2023-05-24T00:49:29.253Z,7.07
2023-05-24T00:51:56.478Z,7.06
2023-05-24T00:54:26.154Z,7.01
2023-05-24T00:56:54.699Z,6.96
2023-05-24T00:59:22.652Z,6.93
2023-05-24T01:01:50.465Z,6.82
2023-05-24T01:04:17.743Z,6.62
2023-05-24T01:07:21.856Z,6.70
2023-05-24T01:10:01.017Z,6.63
2023-05-24T01:12:56.316Z,6.40
2023-05-24T01:15:35.812Z,6.30
2023-05-24T01:18:15.533Z,6.08
2023-05-24T01:20:44.064Z,6.14
2023-05-24T01:23:41.890Z,6.20
2023-05-24T01:26:18.115Z,6.22
2023-05-24T01:28:47.359Z,6.19
2023-05-24T01:31:17.006Z,6.10
2023-05-24T01:33:44.805Z,6.03
2023-05-24T01:36:11.908Z,5.95
2023-05-24T01:38:41.495Z,5.78
2023-05-24T01:41:26.673Z,5.93
2023-05-24T01:44:07.472Z,5.58
2023-05-24T01:46:38.854Z,5.67
2023-05-24T01:49:22.297Z,5.93
2023-05-24T01:52:07.299Z,5.83
2023-05-24T01:54:39.098Z,5.61
2023-05-24T01:57:09.056Z,5.69
2023-05-24T01:59:39.740Z,5.61
2023-05-24T02:02:06.841Z,5.50
2023-05-24T02:04:34.007Z,5.51
2023-05-24T02:07:01.050Z,5.54
2023-05-24T02:09:28.088Z,5.43
2023-05-24T02:11:55.260Z,5.32
2023-05-24T02:14:24.381Z,5.36
2023-05-24T02:16:51.509Z,5.41
2023-05-24T02:19:19.610Z,5.26
2023-05-24T02:21:46.793Z,5.10
2023-05-24T02:24:14.948Z,5.27
2023-05-24T02:26:42.209Z,5.19
2023-05-24T02:29:09.386Z,5.10
2023-05-24T02:31:36.975Z,4.91
2023-05-24T02:34:04.198Z,4.90
2023-05-24T02:36:32.593Z,4.82
2023-05-24T02:38:59.684Z,4.97
2023-05-24T02:41:26.857Z,4.85
2023-05-24T02:43:53.976Z,4.99
2023-05-24T02:46:21.146Z,4.97
2023-05-24T02:48:49.600Z,4.91
2023-05-24T02:51:17.091Z,4.76
2023-05-24T02:53:45.298Z,4.82
2023-05-24T02:56:13.934Z,4.75
2023-05-24T02:58:41.944Z,4.94
2023-05-24T03:01:09.073Z,5.00
2023-05-24T03:03:36.819Z,5.05
2023-05-24T03:06:09.572Z,5.14
2023-05-24T03:08:37.408Z,4.94
2023-05-24T03:11:05.589Z,5.29
2023-05-24T03:13:34.486Z,5.27
2023-05-24T03:16:02.087Z,5.47
2023-05-24T03:18:30.161Z,5.42
2023-05-24T03:20:57.313Z,5.59
2023-05-24T03:23:24.398Z,5.63
2023-05-24T03:25:51.483Z,5.71
2023-05-24T03:28:19.016Z,5.45
2023-05-24T03:30:46.493Z,5.41
2023-05-24T03:33:14.778Z,5.54
2023-05-24T03:35:42.012Z,5.74
2023-05-24T03:38:12.847Z,5.46
2023-05-24T03:40:43.927Z,5.84
2023-05-24T03:43:18.177Z,5.57
2023-05-24T03:45:52.476Z,5.64
2023-05-24T03:48:22.690Z,5.74
2023-05-24T03:50:51.626Z,5.21
2023-05-24T03:53:19.568Z,5.39
2023-05-24T03:55:48.765Z,5.51
2023-05-24T03:58:15.829Z,5.83
2023-05-24T04:00:43.154Z,5.81
2023-05-24T04:03:12.115Z,5.73
2023-05-24T04:05:39.941Z,5.78
2023-05-24T04:08:07.633Z,5.82
2023-05-24T04:10:38.016Z,5.56
2023-05-24T04:13:05.167Z,5.76
2023-05-24T04:15:37.853Z,6.00
2023-05-24T04:18:05.686Z,6.04
2023-05-24T04:20:35.052Z,6.04
2023-05-24T04:23:02.173Z,6.20
2023-05-24T04:25:30.376Z,6.29
2023-05-24T04:27:57.438Z,6.40
2023-05-24T04:30:25.103Z,6.35
2023-05-24T04:32:52.697Z,6.40
2023-05-24T04:35:20.339Z,6.55
2023-05-24T04:37:50.086Z,6.63
2023-05-24T04:40:20.795Z,6.61
2023-05-24T04:42:47.870Z,6.63
2023-05-24T04:45:15.069Z,6.16
2023-05-24T04:47:42.430Z,6.65
2023-05-24T04:50:09.934Z,6.99
2023-05-24T04:52:36.977Z,6.96
2023-05-24T04:55:04.368Z,6.83
2023-05-24T04:57:31.521Z,6.87
2023-05-24T04:59:58.941Z,6.69
2023-05-24T05:02:27.096Z,6.91
2023-05-24T05:04:54.450Z,7.04
2023-05-24T05:07:21.500Z,7.10
2023-05-24T05:09:48.750Z,7.21
2023-05-24T05:12:16.027Z,7.25
2023-05-24T05:14:43.280Z,7.27
2023-05-24T05:17:10.412Z,6.99
2023-05-24T05:19:37.494Z,7.30
2023-05-24T05:22:04.682Z,7.29
2023-05-24T05:24:31.725Z,7.61
2023-05-24T05:26:58.846Z,7.52
2023-05-24T05:29:25.918Z,7.79
2023-05-24T05:31:53.124Z,7.53
2023-05-24T05:34:21.193Z,7.99
2023-05-24T05:36:48.267Z,8.13
2023-05-24T05:39:15.591Z,8.08
2023-05-24T05:41:45.968Z,8.01
2023-05-24T05:44:14.973Z,8.26
2023-05-24T05:46:43.970Z,8.51
2023-05-24T05:49:11.665Z,8.34
2023-05-24T05:51:39.122Z,8.72
2023-05-24T05:54:06.598Z,8.30
2023-05-24T05:56:33.692Z,8.20
2023-05-24T05:59:00.962Z,8.26
2023-05-24T06:01:27.992Z,8.32
2023-05-24T06:03:55.263Z,8.56
2023-05-24T06:06:22.479Z,8.53
2023-05-24T06:08:49.629Z,8.83
2023-05-24T06:11:16.868Z,8.90
2023-05-24T06:13:44.031Z,8.93
2023-05-24T06:16:11.248Z,9.14
2023-05-24T06:18:38.535Z,9.23
2023-05-24T06:21:06.646Z,9.60
2023-05-24T06:23:33.673Z,9.54
2023-05-24T06:26:03.832Z,9.90
2023-05-24T06:28:30.893Z,9.51
2023-05-24T06:30:57.948Z,9.51
2023-05-24T06:33:25.007Z,9.56
2023-05-24T06:35:52.044Z,9.66
2023-05-24T06:38:19.086Z,9.99
2023-05-24T06:40:46.211Z,9.55
2023-05-24T06:43:13.666Z,9.72
2023-05-24T06:45:41.678Z,9.74
2023-05-24T06:48:11.242Z,9.79
2023-05-24T06:50:40.344Z,10.16
2023-05-24T06:53:09.841Z,10.21
2023-05-24T06:55:37.486Z,10.18
2023-05-24T06:58:05.477Z,9.97
2023-05-24T07:00:32.560Z,9.96
2023-05-24T07:02:59.651Z,10.14
2023-05-24T07:05:26.740Z,10.26
2023-05-24T07:07:53.758Z,10.60
2023-05-24T07:10:21.014Z,10.86
2023-05-24T07:12:48.063Z,10.98
2023-05-24T07:15:15.230Z,10.93
2023-05-24T07:17:42.318Z,11.17
2023-05-24T07:20:10.658Z,11.10
2023-05-24T07:22:37.752Z,11.15
2023-05-24T07:25:05.504Z,11.09
2023-05-24T07:27:32.562Z,11.57
2023-05-24T07:29:59.705Z,11.77
2023-05-24T07:32:26.880Z,11.88
2023-05-24T07:34:53.987Z,11.72
2023-05-24T07:37:24.006Z,11.83
2023-05-24T07:39:52.093Z,11.73
2023-05-24T07:42:19.364Z,11.90
2023-05-24T07:44:46.855Z,11.95
2023-05-24T07:47:13.920Z,12.01
2023-05-24T07:49:41.015Z,11.94
2023-05-24T07:52:08.474Z,11.91
2023-05-24T07:54:35.518Z,11.96
2023-05-24T07:57:02.828Z,11.91
2023-05-24T07:59:30.068Z,11.90
2023-05-24T08:02:01.678Z,11.77
2023-05-24T08:04:29.088Z,11.14
2023-05-24T08:06:57.831Z,11.42
2023-05-24T08:09:25.020Z,11.75
2023-05-24T08:11:52.143Z,11.82
2023-05-24T08:14:19.284Z,11.75
2023-05-24T08:16:46.491Z,11.59
2023-05-24T08:19:14.071Z,11.53
2023-05-24T08:21:42.384Z,11.65
2023-05-24T08:24:09.733Z,11.94
2023-05-24T08:26:36.919Z,12.23
2023-05-24T08:29:05.027Z,12.20
2023-05-24T08:31:33.386Z,12.47
2023-05-24T08:34:01.780Z,12.22
2023-05-24T08:36:28.920Z,11.96
2023-05-24T08:38:56.151Z,12.01
2023-05-24T08:41:24.040Z,12.00
2023-05-24T08:43:52.226Z,11.66
2023-05-24T08:46:19.672Z,11.57
2023-05-24T08:48:48.126Z,11.94
2023-05-24T08:51:16.593Z,11.56
2023-05-24T08:53:49.594Z,11.83
2023-05-24T08:56:18.376Z,12.54
2023-05-24T08:58:47.026Z,13.14
2023-05-24T09:01:16.537Z,13.45
2023-05-24T09:03:46.801Z,13.80
2023-05-24T09:06:17.488Z,13.60
2023-05-24T09:08:45.456Z,13.37
2023-05-24T09:11:15.212Z,13.66
2023-05-24T09:13:45.603Z,13.09
2023-05-24T09:16:13.106Z,12.97
2023-05-24T09:18:42.604Z,13.48
2023-05-24T09:21:11.775Z,13.70
2023-05-24T09:23:40.674Z,13.41
2023-05-24T09:26:09.668Z,13.86
2023-05-24T09:28:38.012Z,13.65
2023-05-24T09:31:07.720Z,13.43
2023-05-24T09:33:35.359Z,13.18
2023-05-24T09:36:04.725Z,13.29
2023-05-24T09:38:31.978Z,13.50
2023-05-24T09:41:03.090Z,13.70
2023-05-24T09:43:34.689Z,13.94
2023-05-24T09:46:05.612Z,13.79
2023-05-24T09:48:32.800Z,13.87
2023-05-24T09:51:05.110Z,14.12
2023-05-24T09:53:36.577Z,14.26
2023-05-24T09:56:05.374Z,13.66
2023-05-24T09:58:35.731Z,13.57
2023-05-24T10:01:08.024Z,14.41
2023-05-24T10:03:37.335Z,14.19
2023-05-24T10:06:08.101Z,14.28
2023-05-24T10:08:36.554Z,14.15
2023-05-24T10:11:06.493Z,14.45
2023-05-24T10:13:35.786Z,14.53
2023-05-24T10:16:03.826Z,14.13
2023-05-24T10:18:31.273Z,14.72
2023-05-24T10:20:59.511Z,14.83
2023-05-24T10:23:30.360Z,14.62
2023-05-24T10:26:06.715Z,14.48
2023-05-24T10:28:54.898Z,14.65
2023-05-24T10:31:37.155Z,14.84
2023-05-24T10:34:08.675Z,14.68
2023-05-24T10:36:39.908Z,15.16
2023-05-24T10:39:11.167Z,15.06
2023-05-24T10:41:42.041Z,15.19
2023-05-24T10:44:13.452Z,14.84
2023-05-24T10:47:09.887Z,14.40
2023-05-24T10:49:39.638Z,15.05
2023-05-24T10:52:10.712Z,14.87
2023-05-24T10:54:39.932Z,14.47
2023-05-24T10:57:10.097Z,14.57
2023-05-24T10:59:39.205Z,14.17
2023-05-24T11:02:16.269Z,14.50
2023-05-24T11:04:46.796Z,14.39
2023-05-24T11:07:15.838Z,14.17
2023-05-24T11:09:46.503Z,14.49
2023-05-24T11:12:17.298Z,14.81
2023-05-24T11:14:53.794Z,14.96
2023-05-24T11:17:22.826Z,14.84
2023-05-24T11:19:52.990Z,14.90
2023-05-24T11:22:25.272Z,14.85
2023-05-24T11:24:53.586Z,14.99
2023-05-24T11:27:20.908Z,15.57
2023-05-24T11:29:48.790Z,15.97
2023-05-24T11:32:18.146Z,15.81
2023-05-24T11:34:46.927Z,15.74
2023-05-24T11:37:17.100Z,15.65
2023-05-24T11:39:51.209Z,15.26
2023-05-24T11:42:18.437Z,14.87
2023-05-24T11:44:48.377Z,14.70
2023-05-24T11:47:15.715Z,14.63
2023-05-24T11:49:42.810Z,13.79
2023-05-24T11:52:09.982Z,13.60
2023-05-24T11:54:38.774Z,13.52
2023-05-24T11:57:06.210Z,12.84
2023-05-24T11:59:35.739Z,13.06
2023-05-24T12:02:05.437Z,12.83
2023-05-24T12:04:34.619Z,12.92
2023-05-24T12:07:03.082Z,12.93
2023-05-24T12:09:30.236Z,12.85
2023-05-24T12:12:01.931Z,12.44
2023-05-24T12:14:33.654Z,12.35
2023-05-24T12:17:01.239Z,12.80
2023-05-24T12:19:36.466Z,13.18
2023-05-24T12:22:11.482Z,13.80
2023-05-24T12:24:38.603Z,14.24
2023-05-24T12:27:07.562Z,14.20
2023-05-24T12:29:37.693Z,14.06
2023-05-24T12:32:05.369Z,13.57
2023-05-24T12:34:32.580Z,13.77
2023-05-24T12:37:00.054Z,13.74
2023-05-24T12:39:33.903Z,13.32
2023-05-24T12:42:02.293Z,13.41
2023-05-24T12:44:36.392Z,13.26
2023-05-24T12:47:08.332Z,13.50
2023-05-24T12:49:35.876Z,13.75
2023-05-24T12:52:03.628Z,13.87
2023-05-24T12:54:31.112Z,13.41
2023-05-24T12:57:03.252Z,13.78
2023-05-24T12:59:30.830Z,14.47
2023-05-24T13:01:58.233Z,14.29
2023-05-24T13:04:30.497Z,14.94
2023-05-24T13:06:57.675Z,15.16
2023-05-24T13:09:26.113Z,14.85
2023-05-24T13:11:55.088Z,14.96
2023-05-24T13:14:22.333Z,15.32
2023-05-24T13:16:49.620Z,15.28
2023-05-24T13:19:17.260Z,15.37
2023-05-24T13:21:44.871Z,15.49
2023-05-24T13:24:15.627Z,15.61
2023-05-24T13:26:43.056Z,15.19
2023-05-24T13:31:41.080Z,13.90
2023-05-24T13:34:11.827Z,14.17
2023-05-24T13:36:39.162Z,13.78
2023-05-24T13:41:40.840Z,14.11
2023-05-24T13:44:08.632Z,14.78
2023-05-24T13:46:36.369Z,14.34
2023-05-24T13:49:04.343Z,15.10
2023-05-24T13:51:31.584Z,15.10
2023-05-24T13:53:59.549Z,14.28
2023-05-24T13:56:32.442Z,14.91
2023-05-24T13:59:01.099Z,15.45
2023-05-24T14:01:28.619Z,15.61
2023-05-24T14:03:55.710Z,15.81
2023-05-24T14:06:22.908Z,15.94
2023-05-24T14:08:49.970Z,15.46
2023-05-24T14:11:17.134Z,16.05
2023-05-24T14:16:14.727Z,16.09
2023-05-24T14:18:41.922Z,16.17
2023-05-24T14:21:09.259Z,15.71
2023-05-24T14:23:36.379Z,16.18
2023-05-24T14:28:44.571Z,15.94
2023-05-24T14:31:11.854Z,16.07
2023-05-24T14:33:38.993Z,15.37
2023-05-24T14:36:06.447Z,15.42
2023-05-24T14:38:33.726Z,16.09
2023-05-24T14:41:01.582Z,16.32
2023-05-24T14:43:28.805Z,16.34
2023-05-24T14:45:56.414Z,16.05
2023-05-24T14:48:23.552Z,15.79
2023-05-24T14:50:50.694Z,15.50
2023-05-24T14:53:17.821Z,15.48
2023-05-24T14:55:45.224Z,15.34
2023-05-24T14:58:12.574Z,15.28
2023-05-24T15:00:41.318Z,15.41
2023-05-24T15:03:09.002Z,15.83
2023-05-24T15:05:36.565Z,16.48
2023-05-24T15:08:05.654Z,16.85
2023-05-24T15:10:33.284Z,15.70
2023-05-24T15:13:01.286Z,15.17
2023-05-24T15:15:28.765Z,15.52
2023-05-24T15:17:57.553Z,15.80
2023-05-24T15:20:26.053Z,15.21
2023-05-24T15:23:10.599Z,15.39
2023-05-24T15:25:38.032Z,15.12
2023-05-24T15:28:05.457Z,15.59
2023-05-24T15:30:32.590Z,15.12
2023-05-24T15:32:59.632Z,15.19
2023-05-24T15:35:29.666Z,14.73
2023-05-24T15:37:56.953Z,14.61
2023-05-24T15:40:24.628Z,14.23
2023-05-24T15:42:52.767Z,13.96
2023-05-24T15:45:20.014Z,14.06
2023-05-24T15:47:47.290Z,13.88
2023-05-24T15:50:14.439Z,13.50
2023-05-24T15:52:41.561Z,13.80
2023-05-24T15:55:09.132Z,13.94
2023-05-24T15:57:36.191Z,13.58
2023-05-24T16:00:03.911Z,13.48
2023-05-24T16:02:39.241Z,13.51
2023-05-24T16:05:06.957Z,13.47
2023-05-24T16:07:34.231Z,13.44
2023-05-24T16:10:01.336Z,12.99
2023-05-24T16:12:30.159Z,12.91
2023-05-24T16:14:59.830Z,13.20
2023-05-24T16:17:27.065Z,12.55
2023-05-24T16:19:54.367Z,12.47
2023-05-24T16:22:21.646Z,13.02
2023-05-24T16:24:48.799Z,13.19
2023-05-24T16:27:16.031Z,13.18
2023-05-24T16:29:45.458Z,13.02
2023-05-24T16:32:14.039Z,13.33
2023-05-24T16:34:55.560Z,13.38
2023-05-24T16:37:23.690Z,13.53
2023-05-24T16:39:51.003Z,13.27
2023-05-24T16:42:18.058Z,13.05
2023-05-24T16:44:45.263Z,13.19
2023-05-24T16:47:12.759Z,12.70
2023-05-24T16:49:40.086Z,12.69
2023-05-24T16:52:07.411Z,12.82
2023-05-24T16:54:34.559Z,12.88
2023-05-24T16:57:01.747Z,12.76
2023-05-24T16:59:28.808Z,12.83
2023-05-24T17:01:55.963Z,12.40
2023-05-24T17:04:23.116Z,12.45
2023-05-24T17:06:50.271Z,12.77
2023-05-24T17:09:17.626Z,12.61
2023-05-24T17:11:44.821Z,12.71
2023-05-24T17:14:11.875Z,13.04
2023-05-24T17:16:39.497Z,12.83
2023-05-24T17:19:06.653Z,12.86
2023-05-24T17:21:33.722Z,12.86
2023-05-24T17:24:00.911Z,12.62
2023-05-24T17:26:28.060Z,12.42
2023-05-24T17:28:55.094Z,12.54
2023-05-24T17:31:22.375Z,12.65
2023-05-24T17:33:49.527Z,12.51
2023-05-24T17:36:16.725Z,12.63
2023-05-24T17:38:43.851Z,12.65
2023-05-24T17:41:10.941Z,12.42
2023-05-24T17:43:40.037Z,12.54
2023-05-24T17:46:07.679Z,12.82
2023-05-24T17:48:39.589Z,12.80
2023-05-24T17:51:08.222Z,12.40
2023-05-24T17:53:37.084Z,12.66
2023-05-24T17:56:05.300Z,12.67
2023-05-24T17:58:35.704Z,12.36
2023-05-24T18:01:05.299Z,12.33
2023-05-24T18:03:33.746Z,12.69
2023-05-24T18:06:01.309Z,12.54
2023-05-24T18:08:28.367Z,12.55
2023-05-24T18:10:55.697Z,12.49
2023-05-24T18:13:22.767Z,12.50
2023-05-24T18:15:50.185Z,12.55
2023-05-24T18:18:17.652Z,12.22
2023-05-24T18:20:44.761Z,12.41
2023-05-24T18:23:11.949Z,12.52
2023-05-24T18:25:39.128Z,12.42
2023-05-24T18:28:07.271Z,12.52
2023-05-24T18:30:34.376Z,12.46
2023-05-24T18:33:07.217Z,12.22
2023-05-24T18:35:35.686Z,12.52
2023-05-24T18:38:03.700Z,12.70
2023-05-24T18:40:31.052Z,12.46
2023-05-24T18:42:58.089Z,12.57
2023-05-24T18:45:25.283Z,12.61
2023-05-24T18:47:54.019Z,12.61
2023-05-24T18:50:23.190Z,12.47
2023-05-24T18:52:50.805Z,12.45
2023-05-24T18:55:17.940Z,12.37
2023-05-24T18:57:45.103Z,11.79
2023-05-24T19:00:12.886Z,12.15
2023-05-24T19:02:40.446Z,11.91
2023-05-24T19:05:08.618Z,11.70
2023-05-24T19:07:36.138Z,11.88
2023-05-24T19:10:03.966Z,11.62
2023-05-24T19:12:31.264Z,11.59
2023-05-24T19:14:58.487Z,11.32
2023-05-24T19:17:25.707Z,11.17
2023-05-24T19:19:52.876Z,11.30
2023-05-24T19:22:20.046Z,11.17
2023-05-24T19:24:47.220Z,11.03
2023-05-24T19:27:14.604Z,11.03
2023-05-24T19:29:41.725Z,10.55
2023-05-24T19:32:09.003Z,10.90
2023-05-24T19:34:37.225Z,10.74
2023-05-24T19:37:04.642Z,10.72
2023-05-24T19:39:31.718Z,10.47
2023-05-24T19:41:58.812Z,10.73
2023-05-24T19:44:26.031Z,10.54
2023-05-24T19:46:53.125Z,10.35
2023-05-24T19:49:20.156Z,10.39
2023-05-24T19:51:47.220Z,10.04
2023-05-24T19:54:14.802Z,10.03
2023-05-24T19:56:41.932Z,10.25
2023-05-24T19:59:09.018Z,9.66
2023-05-24T20:01:36.184Z,10.03
2023-05-24T20:04:03.861Z,9.92
2023-05-24T20:06:31.442Z,10.03
2023-05-24T20:08:59.658Z,9.99
2023-05-24T20:11:26.778Z,9.82
2023-05-24T20:13:55.792Z,9.62
2023-05-24T20:16:23.330Z,9.31
2023-05-24T20:18:50.519Z,9.29
2023-05-24T20:21:18.129Z,9.35
2023-05-24T20:23:45.356Z,9.12
2023-05-24T20:26:12.445Z,8.86
2023-05-24T20:28:39.472Z,9.09
2023-05-24T20:31:06.578Z,8.90
2023-05-24T20:33:37.819Z,8.76
2023-05-24T20:36:05.478Z,8.51
2023-05-24T20:38:32.569Z,8.86
2023-05-24T20:40:59.978Z,8.89
2023-05-24T20:43:27.026Z,8.85
2023-05-24T20:45:54.200Z,8.77
2023-05-24T20:48:21.404Z,8.81
2023-05-24T20:50:48.634Z,8.63
2023-05-24T20:53:15.862Z,8.71
2023-05-24T20:55:43.268Z,8.64
2023-05-24T20:58:14.904Z,8.65
2023-05-24T21:00:41.966Z,8.67
2023-05-24T21:03:09.367Z,8.59
2023-05-24T21:05:37.969Z,8.60
2023-05-24T21:08:05.115Z,8.48
2023-05-24T21:10:33.002Z,8.37
2023-05-24T21:13:00.076Z,8.05
2023-05-24T21:15:27.186Z,8.30
2023-05-24T21:17:54.283Z,8.24
2023-05-24T21:20:21.551Z,8.01
2023-05-24T21:22:48.794Z,7.79
2023-05-24T21:25:16.029Z,7.89
2023-05-24T21:27:43.205Z,8.03
2023-05-24T21:30:10.766Z,7.94
2023-05-24T21:32:37.960Z,8.02
2023-05-24T21:35:05.630Z,7.88
2023-05-24T21:37:32.660Z,7.91
2023-05-24T21:39:59.681Z,7.86
2023-05-24T21:42:26.730Z,7.84
2023-05-24T21:44:53.822Z,7.84
2023-05-24T21:47:20.872Z,7.62
2023-05-24T21:49:47.929Z,7.47
2023-05-24T21:52:15.011Z,7.59
2023-05-24T21:54:42.064Z,7.61
2023-05-24T21:57:09.122Z,7.69
2023-05-24T21:59:36.141Z,7.62
2023-05-24T22:02:03.517Z,7.51
2023-05-24T22:04:30.821Z,7.28
2023-05-24T22:07:16.129Z,7.30
2023-05-24T22:09:43.195Z,7.18
2023-05-24T22:12:10.237Z,7.43
2023-05-24T22:14:37.304Z,6.98
2023-05-24T22:17:04.682Z,7.21
2023-05-24T22:19:39.498Z,6.87
2023-05-24T22:22:08.702Z,7.16
2023-05-24T22:24:36.144Z,7.08
2023-05-24T22:27:03.763Z,7.06
2023-05-24T22:29:30.848Z,7.10
2023-05-24T22:31:57.932Z,7.13
2023-05-24T22:34:28.846Z,7.17
2023-05-24T22:36:57.381Z,7.23
2023-05-24T22:39:25.048Z,7.03
2023-05-24T22:41:53.030Z,7.06
2023-05-24T22:44:20.319Z,6.96
2023-05-24T22:46:49.667Z,6.85
2023-05-24T22:49:19.453Z,6.77
2023-05-24T22:51:48.084Z,6.63
2023-05-24T22:54:15.641Z,6.69
2023-05-24T22:56:43.861Z,6.52
2023-05-24T22:59:11.310Z,6.52
2023-05-24T23:01:38.650Z,6.28
2023-05-24T23:04:19.670Z,6.67
2023-05-24T23:06:52.189Z,6.66
2023-05-24T23:09:28.807Z,6.56
2023-05-24T23:11:58.119Z,6.34
2023-05-24T23:14:25.223Z,6.47
2023-05-24T23:16:52.369Z,6.32
2023-05-24T23:19:19.478Z,6.22
2023-05-24T23:21:46.599Z,6.25
2023-05-24T23:24:16.019Z,6.27
2023-05-24T23:26:43.289Z,6.27
2023-05-24T23:29:10.479Z,6.00
2023-05-24T23:31:37.889Z,6.15
2023-05-24T23:34:05.517Z,6.12
2023-05-24T23:36:32.901Z,6.11
2023-05-24T23:39:00.203Z,5.96
2023-05-24T23:41:27.286Z,5.98
2023-05-24T23:43:54.373Z,6.02
2023-05-24T23:46:21.539Z,6.01
2023-05-24T23:48:48.652Z,5.94
2023-05-24T23:51:15.761Z,5.96
2023-05-24T23:53:42.815Z,6.04
2023-05-24T23:56:09.857Z,5.63
2023-05-24T23:58:37.506Z,5.89
